sensor_id;sensor_type;location;lat;lon;timestamp;pressure;altitude;pressure_sealevel;temperature;humidity
21086;BME280;34247;50.064;19.970;2023-05-15T01:43:17;98604.88;;;14.09;100.00
21086;BME280;34247;50.064;19.970;2023-05-15T01:44:50;98612.31;;;14.15;100.00
21086;BME280;34247;50.064;19.970;2023-05-15T01:46:13;98602.47;;;14.16;100.00
21086;BME280;34247;50.064;19.970;2023-05-15T01:47:45;98599.22;;;14.12;100.00
21086;BME280;34247;50.064;19.970;2023-05-15T01:49:08;98591.38;;;14.11;100.00
21086;BME280;34247;50.064;19.970;2023-05-15T01:50:32;98583.38;;;14.11;100.00
21086;BME280;34247;50.064;19.970;2023-05-15T01:51:48;98587.72;;;14.12;100.00
21086;BME280;34247;50.064;19.970;2023-05-15T01:53:02;98592.78;;;14.15;100.00
21086;BME280;34247;50.064;19.970;2023-05-15T01:54:12;98579.44;;;14.15;100.00
21086;BME280;34247;50.064;19.970;2023-05-15T01:55:22;98579.44;;;14.15;100.00
21086;BME280;34247;50.064;19.970;2023-05-15T01:56:32;98590.81;;;14.17;100.00
21086;BME280;34247;50.064;19.970;2023-05-15T01:57:44;98584.47;;;14.18;100.00
21086;BME280;34247;50.064;19.970;2023-05-15T01:59:26;98587.44;;;14.15;100.00
21086;BME280;34247;50.064;19.970;2023-05-15T02:00:43;98583.50;;;14.19;100.00
21086;BME280;34247;50.064;19.970;2023-05-15T02:02:06;98578.88;;;14.21;100.00
21086;BME280;34247;50.064;19.970;2023-05-15T02:03:26;98577.03;;;14.21;100.00
21086;BME280;34247;50.064;19.970;2023-05-15T02:04:46;98576.88;;;14.23;100.00
21086;BME280;34247;50.064;19.970;2023-05-15T02:06:04;98574.22;;;14.23;100.00
21086;BME280;34247;50.064;19.970;2023-05-15T02:07:34;98573.38;;;14.22;100.00
21086;BME280;34247;50.064;19.970;2023-05-15T02:08:45;98572.97;;;14.27;100.00
21086;BME280;34247;50.064;19.970;2023-05-15T02:10:04;98570.16;;;14.19;100.00
21086;BME280;34247;50.064;19.970;2023-05-15T02:11:16;98567.47;;;14.19;100.00
21086;BME280;34247;50.064;19.970;2023-05-15T02:12:27;98558.50;;;14.20;100.00
21086;BME280;34247;50.064;19.970;2023-05-15T02:13:41;98562.97;;;14.19;100.00
21086;BME280;34247;50.064;19.970;2023-05-15T02:14:52;98562.59;;;14.14;100.00
21086;BME280;34247;50.064;19.970;2023-05-15T02:16:06;98549.94;;;14.16;100.00
21086;BME280;34247;50.064;19.970;2023-05-15T02:17:18;98555.44;;;14.15;100.00
21086;BME280;34247;50.064;19.970;2023-05-15T02:18:34;98554.75;;;14.13;100.00
21086;BME280;34247;50.064;19.970;2023-05-15T02:19:46;98562.03;;;14.11;100.00
21086;BME280;34247;50.064;19.970;2023-05-15T02:20:55;98551.50;;;14.09;100.00
21086;BME280;34247;50.064;19.970;2023-05-15T02:21:59;98551.19;;;14.12;100.00
21086;BME280;34247;50.064;19.970;2023-05-15T02:23:06;98551.34;;;14.11;100.00
21086;BME280;34247;50.064;19.970;2023-05-15T02:24:11;98548.53;;;14.12;100.00
21086;BME280;34247;50.064;19.970;2023-05-15T02:25:16;98538.41;;;14.16;100.00
21086;BME280;34247;50.064;19.970;2023-05-15T02:27:01;98548.25;;;14.15;100.00
21086;BME280;34247;50.064;19.970;2023-05-15T02:28:23;98539.84;;;14.10;100.00
21086;BME280;34247;50.064;19.970;2023-05-15T02:31:46;98527.06;;;14.14;100.00
21086;BME280;34247;50.064;19.970;2023-05-15T02:33:54;98527.59;;;14.17;100.00
21086;BME280;34247;50.064;19.970;2023-05-15T02:37:39;98522.84;;;14.11;100.00
21086;BME280;34247;50.064;19.970;2023-05-15T02:38:57;98514.56;;;14.14;100.00
21086;BME280;34247;50.064;19.970;2023-05-15T02:40:13;98510.47;;;14.20;100.00
21086;BME280;34247;50.064;19.970;2023-05-15T02:41:46;98521.00;;;14.21;100.00
21086;BME280;34247;50.064;19.970;2023-05-15T02:42:59;98514.09;;;14.19;100.00
21086;BME280;34247;50.064;19.970;2023-05-15T02:44:17;98516.34;;;14.23;100.00
21086;BME280;34247;50.064;19.970;2023-05-15T02:45:40;98516.91;;;14.27;100.00
21086;BME280;34247;50.064;19.970;2023-05-15T02:46:50;98514.22;;;14.27;100.00
21086;BME280;34247;50.064;19.970;2023-05-15T02:47:59;98514.91;;;14.29;100.00
21086;BME280;34247;50.064;19.970;2023-05-15T02:49:06;98518.28;;;14.31;100.00
21086;BME280;34247;50.064;19.970;2023-05-15T02:50:20;98517.28;;;14.32;100.00
21086;BME280;34247;50.064;19.970;2023-05-15T02:51:27;98512.66;;;14.34;100.00
21086;BME280;34247;50.064;19.970;2023-05-15T02:52:34;98520.66;;;14.34;100.00
21086;BME280;34247;50.064;19.970;2023-05-15T02:53:49;98516.16;;;14.34;100.00
21086;BME280;34247;50.064;19.970;2023-05-15T02:55:05;98512.66;;;14.34;100.00
21086;BME280;34247;50.064;19.970;2023-05-15T02:56:20;98512.94;;;14.31;100.00
21086;BME280;34247;50.064;19.970;2023-05-15T02:57:40;98513.78;;;14.31;100.00
21086;BME280;34247;50.064;19.970;2023-05-15T02:58:59;98515.44;;;14.32;100.00
21086;BME280;34247;50.064;19.970;2023-05-15T03:00:11;98512.41;;;14.27;100.00
21086;BME280;34247;50.064;19.970;2023-05-15T03:01:18;98510.94;;;14.33;100.00
21086;BME280;34247;50.064;19.970;2023-05-15T03:02:30;98512.94;;;14.31;100.00
21086;BME280;34247;50.064;19.970;2023-05-15T03:03:50;98514.78;;;14.30;100.00
21086;BME280;34247;50.064;19.970;2023-05-15T03:05:02;98510.56;;;14.28;100.00
21086;BME280;34247;50.064;19.970;2023-05-15T03:06:13;98511.56;;;14.27;100.00
21086;BME280;34247;50.064;19.970;2023-05-15T03:07:19;98510.56;;;14.28;100.00
21086;BME280;34247;50.064;19.970;2023-05-15T03:08:30;98510.94;;;14.33;100.00
21086;BME280;34247;50.064;19.970;2023-05-15T03:09:52;98505.63;;;14.33;100.00
21086;BME280;34247;50.064;19.970;2023-05-15T03:11:00;98503.66;;;14.35;100.00
21086;BME280;34247;50.064;19.970;2023-05-15T03:12:06;98500.16;;;14.34;100.00
21086;BME280;34247;50.064;19.970;2023-05-15T03:13:13;98506.59;;;14.32;100.00
21086;BME280;34247;50.064;19.970;2023-05-15T03:14:18;98502.09;;;14.32;100.00
21086;BME280;34247;50.064;19.970;2023-05-15T03:15:25;98504.50;;;14.35;100.00
21086;BME280;34247;50.064;19.970;2023-05-15T03:16:30;98500.84;;;14.37;100.00
21086;BME280;34247;50.064;19.970;2023-05-15T03:17:34;98503.34;;;14.38;100.00
21086;BME280;34247;50.064;19.970;2023-05-15T03:18:39;98504.66;;;14.34;100.00
21086;BME280;34247;50.064;19.970;2023-05-15T03:19:44;98506.59;;;14.32;100.00
21086;BME280;34247;50.064;19.970;2023-05-15T03:20:51;98503.09;;;14.31;100.00
21086;BME280;34247;50.064;19.970;2023-05-15T03:21:56;98501.72;;;14.27;100.00
21086;BME280;34247;50.064;19.970;2023-05-15T03:23:00;98496.50;;;14.26;100.00
21086;BME280;34247;50.064;19.970;2023-05-15T03:24:19;98503.25;;;14.30;100.00
21086;BME280;34247;50.064;19.970;2023-05-15T03:25:42;98501.56;;;14.29;100.00
21086;BME280;34247;50.064;19.970;2023-05-15T03:26:52;98503.69;;;14.25;100.00
21086;BME280;34247;50.064;19.970;2023-05-15T03:28:06;98504.41;;;14.27;100.00
21086;BME280;34247;50.064;19.970;2023-05-15T03:29:12;98507.91;;;14.28;100.00
21086;BME280;34247;50.064;19.970;2023-05-15T03:30:28;98499.06;;;14.27;100.00
21086;BME280;34247;50.064;19.970;2023-05-15T03:31:41;98502.56;;;14.28;100.00
21086;BME280;34247;50.064;19.970;2023-05-15T03:33:03;98507.66;;;14.21;100.00
21086;BME280;34247;50.064;19.970;2023-05-15T03:34:20;98501.59;;;14.19;100.00
21086;BME280;34247;50.064;19.970;2023-05-15T03:35:37;98506.81;;;14.21;100.00
21086;BME280;34247;50.064;19.970;2023-05-15T03:36:47;98502.75;;;14.17;100.00
21086;BME280;34247;50.064;19.970;2023-05-15T03:37:56;98501.75;;;14.18;100.00
21086;BME280;34247;50.064;19.970;2023-05-15T03:39:05;98508.63;;;14.20;100.00
21086;BME280;34247;50.064;19.970;2023-05-15T03:40:18;98499.38;;;14.15;100.00
21086;BME280;34247;50.064;19.970;2023-05-15T03:41:25;98502.59;;;14.18;100.00
21086;BME280;34247;50.064;19.970;2023-05-15T03:42:32;98487.28;;;14.20;100.00
21086;BME280;34247;50.064;19.970;2023-05-15T03:43:40;98493.59;;;14.19;100.00
21086;BME280;34247;50.064;19.970;2023-05-15T03:44:49;98490.78;;;14.21;100.00
21086;BME280;34247;50.064;19.970;2023-05-15T03:45:59;98491.47;;;14.23;100.00
21086;BME280;34247;50.064;19.970;2023-05-15T03:47:09;98496.81;;;14.23;100.00
21086;BME280;34247;50.064;19.970;2023-05-15T03:48:20;98493.84;;;14.26;100.00
21086;BME280;34247;50.064;19.970;2023-05-15T03:49:30;98492.88;;;14.27;100.00
21086;BME280;34247;50.064;19.970;2023-05-15T03:50:37;98488.06;;;14.30;100.00
21086;BME280;34247;50.064;19.970;2023-05-15T03:51:47;98481.22;;;14.28;100.00
21086;BME280;34247;50.064;19.970;2023-05-15T03:52:55;98485.72;;;14.27;100.00
21086;BME280;34247;50.064;19.970;2023-05-15T03:54:04;98486.81;;;14.25;100.00
21086;BME280;34247;50.064;19.970;2023-05-15T03:55:22;98474.47;;;14.24;100.00
21086;BME280;34247;50.064;19.970;2023-05-15T03:56:28;98480.38;;;14.27;100.00
21086;BME280;34247;50.064;19.970;2023-05-15T03:57:44;98479.22;;;14.30;100.00
21086;BME280;34247;50.064;19.970;2023-05-15T03:58:55;98466.88;;;14.29;100.00
21086;BME280;34247;50.064;19.970;2023-05-15T04:00:05;98480.63;;;14.34;100.00
21086;BME280;34247;50.064;19.970;2023-05-15T04:01:17;98475.28;;;14.34;100.00
21086;BME280;34247;50.064;19.970;2023-05-15T04:02:31;98475.56;;;14.31;100.00
21086;BME280;34247;50.064;19.970;2023-05-15T04:03:40;98473.47;;;14.25;100.00
21086;BME280;34247;50.064;19.970;2023-05-15T04:04:46;98474.31;;;14.25;100.00
21086;BME280;34247;50.064;19.970;2023-05-15T04:05:55;98476.16;;;14.25;100.00
21086;BME280;34247;50.064;19.970;2023-05-15T04:07:06;98469.97;;;14.24;100.00
21086;BME280;34247;50.064;19.970;2023-05-15T04:08:15;98466.31;;;14.25;100.00
21086;BME280;34247;50.064;19.970;2023-05-15T04:09:25;98470.53;;;14.28;100.00
21086;BME280;34247;50.064;19.970;2023-05-15T04:10:36;98474.72;;;14.30;100.00
21086;BME280;34247;50.064;19.970;2023-05-15T04:11:57;98475.28;;;14.34;100.00
21086;BME280;34247;50.064;19.970;2023-05-15T04:13:27;98472.31;;;14.37;100.00
21086;BME280;34247;50.064;19.970;2023-05-15T04:14:34;98465.44;;;14.34;100.00
21086;BME280;34247;50.064;19.970;2023-05-15T04:15:52;98457.81;;;14.40;100.00
21086;BME280;34247;50.064;19.970;2023-05-15T04:16:59;98466.09;;;14.46;100.00
21086;BME280;34247;50.064;19.970;2023-05-15T04:18:12;98459.78;;;14.47;100.00
21086;BME280;34247;50.064;19.970;2023-05-15T04:19:21;98458.94;;;14.47;100.00
21086;BME280;34247;50.064;19.970;2023-05-15T04:20:28;98458.94;;;14.47;100.00
21086;BME280;34247;50.064;19.970;2023-05-15T04:21:34;98457.81;;;14.49;100.00
21086;BME280;34247;50.064;19.970;2023-05-15T04:22:44;98461.56;;;14.56;100.00
21086;BME280;34247;50.064;19.970;2023-05-15T04:24:07;98464.75;;;14.60;100.00
21086;BME280;34247;50.064;19.970;2023-05-15T04:25:20;98463.75;;;14.61;100.00
21086;BME280;34247;50.064;19.970;2023-05-15T04:26:25;98457.91;;;14.57;100.00
21086;BME280;34247;50.064;19.970;2023-05-15T04:27:35;98445.06;;;14.61;100.00
21086;BME280;34247;50.064;19.970;2023-05-15T04:28:45;98445.63;;;14.65;100.00
21086;BME280;34247;50.064;19.970;2023-05-15T04:30:11;98440.66;;;14.70;100.00
21086;BME280;34247;50.064;19.970;2023-05-15T04:31:20;98437.69;;;14.73;100.00
21086;BME280;34247;50.064;19.970;2023-05-15T04:32:29;98438.94;;;14.78;100.00
21086;BME280;34247;50.064;19.970;2023-05-15T04:33:42;98438.09;;;14.78;100.00
21086;BME280;34247;50.064;19.970;2023-05-15T04:34:52;98432.28;;;14.82;100.00
21086;BME280;34247;50.064;19.970;2023-05-15T04:36:01;98428.59;;;14.83;100.00
21086;BME280;34247;50.064;19.970;2023-05-15T04:37:19;98425.94;;;14.83;100.00
21086;BME280;34247;50.064;19.970;2023-05-15T04:38:33;98419.97;;;14.89;100.00
21086;BME280;34247;50.064;19.970;2023-05-15T04:39:44;98409.84;;;14.93;100.00
21086;BME280;34247;50.064;19.970;2023-05-15T04:41:01;98415.72;;;14.97;100.00
21086;BME280;34247;50.064;19.970;2023-05-15T04:42:25;98418.94;;;15.00;100.00
21086;BME280;34247;50.064;19.970;2023-05-15T04:43:40;98422.28;;;15.02;100.00
21086;BME280;34247;50.064;19.970;2023-05-15T04:44:49;98414.94;;;15.04;100.00
21086;BME280;34247;50.064;19.970;2023-05-15T04:46:03;98407.59;;;15.06;100.00
21086;BME280;34247;50.064;19.970;2023-05-15T04:47:18;98405.63;;;15.08;100.00
21086;BME280;34247;50.064;19.970;2023-05-15T04:48:40;98409.66;;;15.12;100.00
21086;BME280;34247;50.064;19.970;2023-05-15T04:49:56;98411.50;;;15.12;100.00
21086;BME280;34247;50.064;19.970;2023-05-15T04:51:07;98419.66;;;15.10;100.00
21086;BME280;34247;50.064;19.970;2023-05-15T04:52:22;98419.22;;;15.15;100.00
21086;BME280;34247;50.064;19.970;2023-05-15T04:53:32;98428.06;;;15.15;100.00
21086;BME280;34247;50.064;19.970;2023-05-15T04:54:43;98421.56;;;15.18;100.00
21086;BME280;34247;50.064;19.970;2023-05-15T04:56:04;98421.41;;;15.20;100.00
21086;BME280;34247;50.064;19.970;2023-05-15T04:57:13;98420.78;;;15.26;100.00
21086;BME280;34247;50.064;19.970;2023-05-15T04:58:26;98416.78;;;15.22;100.00
21086;BME280;34247;50.064;19.970;2023-05-15T04:59:39;98418.28;;;15.24;100.00
21086;BME280;34247;50.064;19.970;2023-05-15T05:00:56;98419.13;;;15.25;100.00
21086;BME280;34247;50.064;19.970;2023-05-15T05:02:13;98430.50;;;15.27;100.00
21086;BME280;34247;50.064;19.970;2023-05-15T05:03:23;98423.09;;;15.21;100.00
21086;BME280;34247;50.064;19.970;2023-05-15T05:04:37;98428.13;;;15.24;100.00
21086;BME280;34247;50.064;19.970;2023-05-15T05:05:49;98420.13;;;15.24;100.00
21086;BME280;34247;50.064;19.970;2023-05-15T05:07:00;98423.19;;;15.29;100.00
21086;BME280;34247;50.064;19.970;2023-05-15T05:08:14;98415.28;;;15.27;100.00
21086;BME280;34247;50.064;19.970;2023-05-15T05:09:31;98421.19;;;15.31;100.00
21086;BME280;34247;50.064;19.970;2023-05-15T05:10:41;98412.63;;;15.27;100.00
21086;BME280;34247;50.064;19.970;2023-05-15T05:11:50;98415.22;;;15.37;100.00
21086;BME280;34247;50.064;19.970;2023-05-15T05:12:55;98411.53;;;15.38;100.00
21086;BME280;34247;50.064;19.970;2023-05-15T05:14:00;98421.06;;;15.40;100.00
21086;BME280;34247;50.064;19.970;2023-05-15T05:15:06;98421.00;;;15.50;100.00
21086;BME280;34247;50.064;19.970;2023-05-15T05:16:11;98433.03;;;15.54;100.00
21086;BME280;34247;50.064;19.970;2023-05-15T05:17:18;98426.34;;;15.50;100.00
21086;BME280;34247;50.064;19.970;2023-05-15T05:18:23;98418.66;;;15.55;100.00
21086;BME280;34247;50.064;19.970;2023-05-15T05:19:28;98433.03;;;15.54;100.00
21086;BME280;34247;50.064;19.970;2023-05-15T05:20:34;98426.69;;;15.55;100.00
21086;BME280;34247;50.064;19.970;2023-05-15T05:21:39;98414.47;;;15.53;100.00
21086;BME280;34247;50.064;19.970;2023-05-15T05:22:44;98407.97;;;15.55;100.00
21086;BME280;34247;50.064;19.970;2023-05-15T05:23:51;98405.78;;;15.51;100.00
21086;BME280;34247;50.064;19.970;2023-05-15T05:24:59;98409.28;;;15.51;100.00
21086;BME280;34247;50.064;19.970;2023-05-15T05:26:04;98408.28;;;15.52;100.00
21086;BME280;34247;50.064;19.970;2023-05-15T05:27:09;98407.63;;;15.50;100.00
21086;BME280;34247;50.064;19.970;2023-05-15T05:28:15;98397.44;;;15.54;100.00
21086;BME280;34247;50.064;19.970;2023-05-15T05:29:20;98406.97;;;15.56;100.00
21086;BME280;34247;50.064;19.970;2023-05-15T05:30:24;98407.38;;;15.61;100.00
21086;BME280;34247;50.064;19.970;2023-05-15T05:31:29;98418.91;;;15.62;100.00
21086;BME280;34247;50.064;19.970;2023-05-15T05:32:34;98419.22;;;15.59;100.00
21086;BME280;34247;50.064;19.970;2023-05-15T05:33:39;98416.38;;;15.60;100.00
21086;BME280;34247;50.064;19.970;2023-05-15T05:34:45;98420.59;;;15.63;100.00
21086;BME280;34247;50.064;19.970;2023-05-15T05:35:51;98419.75;;;15.62;100.00
21086;BME280;34247;50.064;19.970;2023-05-15T05:37:00;98418.00;;;15.53;100.00
21086;BME280;34247;50.064;19.970;2023-05-15T05:38:07;98423.50;;;15.52;100.00
21086;BME280;34247;50.064;19.970;2023-05-15T05:39:12;98423.66;;;15.50;100.00
21086;BME280;34247;50.064;19.970;2023-05-15T05:40:16;98428.03;;;15.51;100.00
21086;BME280;34247;50.064;19.970;2023-05-15T05:41:21;98424.97;;;15.46;100.00
21086;BME280;34247;50.064;19.970;2023-05-15T05:42:27;98432.44;;;15.42;100.00
21086;BME280;34247;50.064;19.970;2023-05-15T05:43:32;98425.06;;;15.36;100.00
21086;BME280;34247;50.064;19.970;2023-05-15T05:44:37;98427.19;;;15.33;100.00
21086;BME280;34247;50.064;19.970;2023-05-15T05:45:46;98418.88;;;15.36;100.00
21086;BME280;34247;50.064;19.970;2023-05-15T05:47:08;98416.50;;;15.33;100.00
21086;BME280;34247;50.064;19.970;2023-05-15T05:48:14;98414.31;;;15.28;100.00
21086;BME280;34247;50.064;19.970;2023-05-15T05:49:29;98420.13;;;15.24;100.00
21086;BME280;34247;50.064;19.970;2023-05-15T05:50:44;98425.41;;;15.15;100.00
21086;BME280;34247;50.064;19.970;2023-05-15T05:51:53;98431.25;;;15.19;100.00
21086;BME280;34247;50.064;19.970;2023-05-15T05:53:04;98437.94;;;15.15;100.00
21086;BME280;34247;50.064;19.970;2023-05-15T05:54:12;98434.88;;;15.10;100.00
21086;BME280;34247;50.064;19.970;2023-05-15T05:55:25;98430.69;;;15.07;100.00
21086;BME280;34247;50.064;19.970;2023-05-15T05:56:34;98423.94;;;15.03;100.00
21086;BME280;34247;50.064;19.970;2023-05-15T05:57:55;98418.09;;;15.00;100.00
21086;BME280;34247;50.064;19.970;2023-05-15T05:59:17;98424.88;;;14.94;100.00
21086;BME280;34247;50.064;19.970;2023-05-15T06:00:26;98413.34;;;14.94;100.00
21086;BME280;34247;50.064;19.970;2023-05-15T06:01:31;98406.34;;;14.93;100.00
21086;BME280;34247;50.064;19.970;2023-05-15T06:02:41;98400.75;;;14.86;100.00
21086;BME280;34247;50.064;19.970;2023-05-15T06:03:53;98398.09;;;14.86;100.00
21086;BME280;34247;50.064;19.970;2023-05-15T06:05:18;98394.59;;;14.85;100.00
21086;BME280;34247;50.064;19.970;2023-05-15T06:06:27;98391.19;;;14.83;100.00
21086;BME280;34247;50.064;19.970;2023-05-15T06:07:35;98398.78;;;14.88;100.00
21086;BME280;34247;50.064;19.970;2023-05-15T06:08:48;98393.75;;;14.85;100.00
21086;BME280;34247;50.064;19.970;2023-05-15T06:10:05;98397.38;;;14.84;100.00
21086;BME280;34247;50.064;19.970;2023-05-15T06:11:19;98391.53;;;14.80;100.00
21086;BME280;34247;50.064;19.970;2023-05-15T06:12:32;98396.88;;;14.80;100.00
21086;BME280;34247;50.064;19.970;2023-05-15T06:13:42;98385.84;;;14.83;100.00
21086;BME280;34247;50.064;19.970;2023-05-15T06:14:55;98388.41;;;14.85;100.00
21086;BME280;34247;50.064;19.970;2023-05-15T06:16:07;98375.88;;;14.85;100.00
21086;BME280;34247;50.064;19.970;2023-05-15T06:17:18;98378.91;;;14.90;100.00
21086;BME280;34247;50.064;19.970;2023-05-15T06:18:47;98359.97;;;14.84;100.00
21086;BME280;34247;50.064;19.970;2023-05-15T06:20:02;98354.63;;;14.84;100.00
21086;BME280;34247;50.064;19.970;2023-05-15T06:21:16;98361.38;;;14.88;100.00
21086;BME280;34247;50.064;19.970;2023-05-15T06:22:23;98346.72;;;14.92;100.00
21086;BME280;34247;50.064;19.970;2023-05-15T06:23:38;98346.19;;;14.88;100.00
21086;BME280;34247;50.064;19.970;2023-05-15T06:24:51;98344.72;;;14.94;100.00
21086;BME280;34247;50.064;19.970;2023-05-15T06:26:01;98352.41;;;14.97;100.00
21086;BME280;34247;50.064;19.970;2023-05-15T06:27:13;98360.16;;;15.00;100.00
21086;BME280;34247;50.064;19.970;2023-05-15T06:28:33;98361.13;;;14.99;100.00
21086;BME280;34247;50.064;19.970;2023-05-15T06:29:59;98356.97;;;15.05;100.00
21086;BME280;34247;50.064;19.970;2023-05-15T06:31:10;98357.19;;;15.11;100.00
21086;BME280;34247;50.064;19.970;2023-05-15T06:32:20;98369.28;;;15.15;100.00
21086;BME280;34247;50.064;19.970;2023-05-15T06:33:34;98353.47;;;15.22;100.00
21086;BME280;34247;50.064;19.970;2023-05-15T06:34:44;98353.66;;;15.29;100.00
21086;BME280;34247;50.064;19.970;2023-05-15T06:36:09;98347.84;;;15.33;100.00
21086;BME280;34247;50.064;19.970;2023-05-15T06:37:26;98349.38;;;15.36;100.00
21086;BME280;34247;50.064;19.970;2023-05-15T06:38:34;98343.22;;;15.43;100.00
21086;BME280;34247;50.064;19.970;2023-05-15T06:39:45;98350.09;;;15.46;100.00
21086;BME280;34247;50.064;19.970;2023-05-15T06:40:54;98346.25;;;15.49;100.00
21086;BME280;34247;50.064;19.970;2023-05-15T06:42:13;98350.94;;;15.47;100.00
21086;BME280;34247;50.064;19.970;2023-05-15T06:43:26;98350.41;;;15.43;100.00
21086;BME280;34247;50.064;19.970;2023-05-15T06:44:34;98348.78;;;15.50;100.00
21086;BME280;34247;50.064;19.970;2023-05-15T06:45:49;98338.72;;;15.44;100.00
21086;BME280;34247;50.064;19.970;2023-05-15T06:46:58;98344.41;;;15.49;100.00
21086;BME280;34247;50.064;19.970;2023-05-15T06:48:08;98345.75;;;15.45;100.00
21086;BME280;34247;50.064;19.970;2023-05-15T06:49:24;98340.78;;;15.50;100.00
21086;BME280;34247;50.064;19.970;2023-05-15T06:50:33;98338.09;;;15.50;100.00
21086;BME280;34247;50.064;19.970;2023-05-15T06:53:18;98341.44;;;15.52;100.00
21086;BME280;34247;50.064;19.970;2023-05-15T06:55:00;98349.19;;;15.63;100.00
21086;BME280;34247;50.064;19.970;2023-05-15T06:56:23;98343.56;;;15.66;100.00
21086;BME280;34247;50.064;19.970;2023-05-15T06:57:42;98342.91;;;15.73;100.00
21086;BME280;34247;50.064;19.970;2023-05-15T06:58:54;98345.09;;;15.77;100.00
21086;BME280;34247;50.064;19.970;2023-05-15T07:00:31;98340.59;;;15.86;100.00
21086;BME280;34247;50.064;19.970;2023-05-15T07:01:43;98339.75;;;15.77;100.00
21086;BME280;34247;50.064;19.970;2023-05-15T07:03:01;98342.91;;;15.73;100.00
21086;BME280;34247;50.064;19.970;2023-05-15T07:04:20;98346.09;;;15.76;100.00
21086;BME280;34247;50.064;19.970;2023-05-15T07:05:37;98339.41;;;15.72;100.00
21086;BME280;34247;50.064;19.970;2023-05-15T07:07:01;98342.72;;;15.66;100.00
21086;BME280;34247;50.064;19.970;2023-05-15T07:08:14;98346.06;;;15.68;100.00
21086;BME280;34247;50.064;19.970;2023-05-15T07:09:28;98347.09;;;15.75;100.00
21086;BME280;34247;50.064;19.970;2023-05-15T07:10:44;98340.44;;;15.79;100.00
21086;BME280;34247;50.064;19.970;2023-05-15T07:11:54;98344.28;;;15.85;100.00
21086;BME280;34247;50.064;19.970;2023-05-15T07:12:59;98347.00;;;15.93;100.00
21086;BME280;34247;50.064;19.970;2023-05-15T07:14:07;98340.34;;;15.97;100.00
21086;BME280;34247;50.064;19.970;2023-05-15T07:15:12;98348.72;;;16.02;100.00
21086;BME280;34247;50.064;19.970;2023-05-15T07:16:17;98343.56;;;16.09;100.00
21086;BME280;34247;50.064;19.970;2023-05-15T07:17:21;98346.44;;;16.15;100.00
21086;BME280;34247;50.064;19.970;2023-05-15T07:18:28;98344.91;;;16.21;100.00
21086;BME280;34247;50.064;19.970;2023-05-15T07:19:40;98338.72;;;16.20;100.00
21086;BME280;34247;50.064;19.970;2023-05-15T07:20:46;98340.59;;;16.28;100.00
21086;BME280;34247;50.064;19.970;2023-05-15T07:21:50;98339.09;;;16.34;100.00
21086;BME280;34247;50.064;19.970;2023-05-15T07:22:55;98354.34;;;16.33;100.00
21086;BME280;34247;50.064;19.970;2023-05-15T07:24:01;98353.31;;;16.26;100.00
21086;BME280;34247;50.064;19.970;2023-05-15T07:25:19;98353.31;;;16.26;100.00
21086;BME280;34247;50.064;19.970;2023-05-15T07:26:24;98356.66;;;16.28;100.00
21086;BME280;34247;50.064;19.970;2023-05-15T07:27:43;98362.19;;;16.35;100.00
21086;BME280;34247;50.064;19.970;2023-05-15T07:28:55;98365.22;;;16.40;100.00
21086;BME280;34247;50.064;19.970;2023-05-15T07:30:04;98348.50;;;16.46;100.00
21086;BME280;34247;50.064;19.970;2023-05-15T07:31:19;98348.69;;;16.52;100.00
21086;BME280;34247;50.064;19.970;2023-05-15T07:32:41;98354.53;;;16.56;100.00
21086;BME280;34247;50.064;19.970;2023-05-15T07:33:54;98350.53;;;16.60;100.00
21086;BME280;34247;50.064;19.970;2023-05-15T07:35:02;98347.34;;;16.65;100.00
21086;BME280;34247;50.064;19.970;2023-05-15T07:36:11;98355.56;;;16.63;100.00
21086;BME280;34247;50.064;19.970;2023-05-15T07:37:19;98349.56;;;16.69;100.00
21086;BME280;34247;50.064;19.970;2023-05-15T07:38:26;98347.56;;;16.71;100.00
21086;BME280;34247;50.064;19.970;2023-05-15T07:39:32;98360.94;;;16.71;100.00
21086;BME280;34247;50.064;19.970;2023-05-15T07:40:39;98357.13;;;16.74;100.00
21086;BME280;34247;50.064;19.970;2023-05-15T07:42:08;98357.31;;;16.80;100.00
21086;BME280;34247;50.064;19.970;2023-05-15T07:43:13;98353.78;;;16.88;100.00
21086;BME280;34247;50.064;19.970;2023-05-15T07:44:21;98355.78;;;16.94;100.00
21086;BME280;34247;50.064;19.970;2023-05-15T07:45:26;98362.31;;;17.00;100.00
21086;BME280;34247;50.064;19.970;2023-05-15T07:46:35;98360.16;;;17.03;100.00
21086;BME280;34247;50.064;19.970;2023-05-15T07:48:11;98374.38;;;17.12;100.00
21086;BME280;34247;50.064;19.970;2023-05-15T07:49:28;98368.00;;;16.97;100.00
21086;BME280;34247;50.064;19.970;2023-05-15T07:50:55;98360.28;;;16.94;100.00
21086;BME280;34247;50.064;19.970;2023-05-15T07:52:00;98364.69;;;16.95;100.00
21086;BME280;34247;50.064;19.970;2023-05-15T07:53:07;98361.81;;;16.96;100.00
21086;BME280;34247;50.064;19.970;2023-05-15T07:54:15;98361.81;;;16.96;100.00
21086;BME280;34247;50.064;19.970;2023-05-15T07:55:20;98364.16;;;16.91;100.00
21086;BME280;34247;50.064;19.970;2023-05-15T07:56:27;98353.44;;;16.91;100.00
21086;BME280;34247;50.064;19.970;2023-05-15T07:57:36;98355.94;;;16.93;100.00
21086;BME280;34247;50.064;19.970;2023-05-15T07:58:46;98346.22;;;17.00;100.00
21086;BME280;34247;50.064;19.970;2023-05-15T07:59:54;98355.09;;;17.00;100.00
21086;BME280;34247;50.064;19.970;2023-05-15T08:01:18;98354.94;;;17.02;100.00
21086;BME280;34247;50.064;19.970;2023-05-15T08:02:36;98353.59;;;17.06;100.00
21086;BME280;34247;50.064;19.970;2023-05-15T08:03:41;98359.13;;;17.04;100.00